Terminal Aerodrome Forecast
Issued by NWS Grand Junction, CO

Home | Current Version | Previous Version | Text Only | Print | Product List | Glossary On
Versions: 1 2 3 4 5 6 7 8 9 10 11 12 13 14
000
FTUS45 KGJT 180528
TAFGJT
TAF
KGJT 180528Z 1806/1906 11012KT P6SM SCT250
     FM181900 20012G22KT P6SM SCT120 BKN250
     FM190200 33005KT P6SM SCT100 BKN150=

USA.gov is the U.S. government's official web portal to all federal, state and local government web resources and services.